createdAt,value
2023-03-07T00:00:26.927Z,4.90
2023-03-07T00:01:08.787Z,4.80
2023-03-07T00:01:51.108Z,5.10
2023-03-07T00:02:32.987Z,4.80
2023-03-07T00:03:16.515Z,4.80
2023-03-07T00:03:59.709Z,5.10
2023-03-07T00:04:46.080Z,5.10
2023-03-07T00:05:27.931Z,5.00
2023-03-07T00:06:11.523Z,5.00
2023-03-07T00:06:58.025Z,4.80
2023-03-07T00:07:39.814Z,5.10
2023-03-07T00:08:23.994Z,4.90
2023-03-07T00:09:08.278Z,5.10
2023-03-07T00:09:50.055Z,5.00
2023-03-07T00:10:32.113Z,5.00
2023-03-07T00:11:13.913Z,4.70
2023-03-07T00:11:58.108Z,4.90
2023-03-07T00:12:39.873Z,4.80
2023-03-07T00:13:23.811Z,4.80
2023-03-07T00:14:08.940Z,4.90
2023-03-07T00:14:53.114Z,4.60
2023-03-07T00:15:37.298Z,4.70
2023-03-07T00:16:21.255Z,5.00
2023-03-07T00:17:03.504Z,4.80
2023-03-07T00:17:45.489Z,4.90
2023-03-07T00:18:27.575Z,5.10
2023-03-07T00:19:09.373Z,4.90
2023-03-07T00:19:51.220Z,4.80
2023-03-07T00:20:32.991Z,5.10
2023-03-07T00:21:17.471Z,4.60
2023-03-07T00:21:59.411Z,5.40
2023-03-07T00:22:42.113Z,4.90
2023-03-07T00:23:23.921Z,4.80
2023-03-07T00:24:06.172Z,5.10
2023-03-07T00:24:51.230Z,5.10
2023-03-07T00:25:32.971Z,4.80
2023-03-07T00:26:20.239Z,4.70
2023-03-07T00:27:02.486Z,4.90
2023-03-07T00:27:44.398Z,4.60
2023-03-07T00:28:26.245Z,4.90
2023-03-07T00:29:09.514Z,4.80
2023-03-07T00:29:51.650Z,4.70
2023-03-07T00:30:33.429Z,4.90
2023-03-07T00:31:18.303Z,4.90
2023-03-07T00:32:42.591Z,5.00
2023-03-07T00:33:24.451Z,5.10
2023-03-07T00:34:06.313Z,4.60
2023-03-07T00:34:48.088Z,4.70
2023-03-07T00:35:30.032Z,4.80
2023-03-07T00:36:23.036Z,4.60
2023-03-07T00:37:05.027Z,4.60
2023-03-07T00:37:46.929Z,4.90
2023-03-07T00:38:33.129Z,4.90
2023-03-07T00:39:15.345Z,5.90
2023-03-07T00:39:57.581Z,4.80
2023-03-07T00:40:39.522Z,5.20
2023-03-07T00:41:26.298Z,4.90
2023-03-07T00:42:08.417Z,4.80
2023-03-07T00:42:50.452Z,4.60
2023-03-07T00:54:34.227Z,4.70
2023-03-07T00:55:16.033Z,5.00
2023-03-07T00:56:03.625Z,4.80
2023-03-07T00:56:48.263Z,4.80
2023-03-07T00:57:30.222Z,5.00
2023-03-07T00:58:12.365Z,5.00
2023-03-07T00:58:54.206Z,4.80
2023-03-07T00:59:39.092Z,4.80
2023-03-07T01:00:23.267Z,4.80
2023-03-07T01:01:06.932Z,4.90
2023-03-07T01:01:48.733Z,5.10
2023-03-07T01:02:30.675Z,4.90
2023-03-07T01:03:15.192Z,5.00
2023-03-07T01:03:57.331Z,4.90
2023-03-07T01:04:39.117Z,5.50
2023-03-07T01:05:23.314Z,5.00
2023-03-07T01:06:07.637Z,4.90
2023-03-07T01:06:50.478Z,4.80
2023-03-07T01:07:32.365Z,5.80
2023-03-07T01:08:14.617Z,4.80
2023-03-07T01:08:59.551Z,5.00
2023-03-07T01:09:41.317Z,7.40
2023-03-07T01:10:23.129Z,4.80
2023-03-07T01:11:08.386Z,4.80
2023-03-07T01:11:50.170Z,6.20
2023-03-07T01:12:32.385Z,5.00
2023-03-07T01:13:14.433Z,4.80
2023-03-07T01:14:00.294Z,4.70
2023-03-07T01:14:42.411Z,5.00
2023-03-07T01:15:24.278Z,4.60
2023-03-07T01:16:12.234Z,5.00
2023-03-07T01:16:54.205Z,4.90
2023-03-07T01:17:38.504Z,4.80
2023-03-07T01:18:20.650Z,4.90
2023-03-07T01:19:08.177Z,4.70
2023-03-07T01:19:49.953Z,5.00
2023-03-07T01:20:33.812Z,4.90
2023-03-07T01:21:29.824Z,4.80
2023-03-07T01:22:11.595Z,5.70
2023-03-07T01:22:53.569Z,5.40
2023-03-07T01:23:35.350Z,4.90
2023-03-07T01:24:18.127Z,4.80
2023-03-07T01:25:00.280Z,4.90
2023-03-07T01:25:43.206Z,4.80
2023-03-07T01:26:31.077Z,5.00
2023-03-07T01:27:15.358Z,4.80
2023-03-07T01:27:57.506Z,4.80
2023-03-07T01:28:39.258Z,4.90
2023-03-07T01:29:23.088Z,5.40
2023-03-07T01:30:06.537Z,5.10
2023-03-07T01:30:59.725Z,4.90
2023-03-07T01:31:42.408Z,4.70
2023-03-07T01:32:24.322Z,5.00
2023-03-07T01:33:06.178Z,5.60
2023-03-07T01:33:49.308Z,4.80
2023-03-07T01:34:33.758Z,4.90
2023-03-07T01:35:15.662Z,4.90
2023-03-07T01:35:58.024Z,5.00
2023-03-07T01:36:42.313Z,4.80
2023-03-07T01:37:24.253Z,4.90
2023-03-07T01:38:06.806Z,4.80
2023-03-07T01:38:49.549Z,4.90
2023-03-07T01:39:33.656Z,4.60
2023-03-07T01:40:18.290Z,4.70
2023-03-07T01:41:03.358Z,4.70
2023-03-07T01:41:45.712Z,4.60
2023-03-07T01:42:33.854Z,5.00
2023-03-07T01:43:30.130Z,4.80
2023-03-07T01:44:20.562Z,5.00
2023-03-07T01:45:14.433Z,4.60
2023-03-07T01:46:27.825Z,4.60
2023-03-07T01:47:09.776Z,4.50
2023-03-07T01:47:51.611Z,4.90
2023-03-07T01:48:33.382Z,4.60
2023-03-07T01:49:22.578Z,4.60
2023-03-07T01:50:07.679Z,4.60
2023-03-07T01:50:49.925Z,4.90
2023-03-07T01:51:32.921Z,4.80
2023-03-07T01:52:29.766Z,4.90
2023-03-07T01:53:12.003Z,4.80
2023-03-07T01:53:55.681Z,4.80
2023-03-07T01:54:44.603Z,5.10
2023-03-07T01:55:34.732Z,4.70
2023-03-07T01:56:16.577Z,4.50
2023-03-07T01:56:59.058Z,4.50
2023-03-07T01:57:44.053Z,4.70
2023-03-07T01:58:28.703Z,4.40
2023-03-07T01:59:11.906Z,4.60
2023-03-07T01:59:57.465Z,4.80
2023-03-07T02:00:43.556Z,4.60
2023-03-07T02:01:29.757Z,4.60
2023-03-07T02:02:17.121Z,4.50
2023-03-07T02:03:10.442Z,4.50
2023-03-07T02:04:01.003Z,4.70
2023-03-07T02:04:46.074Z,4.30
2023-03-07T02:05:38.090Z,4.60
2023-03-07T02:06:20.497Z,4.50
2023-03-07T02:07:03.537Z,5.40
2023-03-07T02:07:49.086Z,4.70
2023-03-07T02:08:34.068Z,5.50
2023-03-07T02:09:20.648Z,4.70
2023-03-07T02:10:03.977Z,5.30
2023-03-07T02:10:46.067Z,4.90
2023-03-07T02:11:28.201Z,4.60
2023-03-07T02:12:10.647Z,5.30
2023-03-07T02:12:54.110Z,4.60
2023-03-07T02:13:38.671Z,4.70
2023-03-07T02:14:20.758Z,4.60
2023-03-07T02:15:04.084Z,4.70
2023-03-07T02:15:49.025Z,4.50
2023-03-07T02:16:33.545Z,4.60
2023-03-07T02:17:16.076Z,4.60
2023-03-07T02:17:58.903Z,4.50
2023-03-07T02:18:45.152Z,4.40
2023-03-07T02:20:00.131Z,4.70
2023-03-07T02:21:11.514Z,4.30
2023-03-07T02:22:14.988Z,4.50
2023-03-07T02:22:59.754Z,4.40
2023-03-07T02:24:18.819Z,4.60
2023-03-07T02:25:14.916Z,4.50
2023-03-07T02:26:05.644Z,4.80
2023-03-07T02:26:49.173Z,4.60
2023-03-07T02:27:35.787Z,4.70
2023-03-07T02:28:19.132Z,4.50
2023-03-07T02:29:05.136Z,4.90
2023-03-07T02:29:47.348Z,5.00
2023-03-07T02:30:29.427Z,4.80
2023-03-07T02:31:11.894Z,4.30
2023-03-07T02:31:53.736Z,4.70
2023-03-07T02:32:38.057Z,4.60
2023-03-07T02:33:23.154Z,4.90
2023-03-07T02:34:31.008Z,4.80
2023-03-07T02:35:18.159Z,4.70
2023-03-07T02:36:12.894Z,4.70
2023-03-07T02:37:31.883Z,4.70
2023-03-07T02:38:13.928Z,4.70
2023-03-07T02:38:57.755Z,4.70
2023-03-07T02:39:45.076Z,5.00
2023-03-07T02:40:31.400Z,4.60
2023-03-07T02:41:15.103Z,4.70
2023-03-07T02:42:10.634Z,4.90
2023-03-07T02:42:57.854Z,4.90
2023-03-07T02:43:39.892Z,5.80
2023-03-07T02:44:22.009Z,5.70
2023-03-07T02:45:07.065Z,5.80
2023-03-07T02:45:49.013Z,4.70
2023-03-07T02:46:30.766Z,4.80
2023-03-07T02:47:14.678Z,6.90
2023-03-07T02:47:56.458Z,5.00
2023-03-07T02:48:38.240Z,5.10
2023-03-07T02:49:20.278Z,4.90
2023-03-07T02:50:04.877Z,4.80
2023-03-07T02:50:49.022Z,5.00
2023-03-07T02:51:33.132Z,4.80
2023-03-07T02:52:15.345Z,4.70
2023-03-07T02:52:57.421Z,4.90
2023-03-07T02:53:39.798Z,4.70
2023-03-07T02:54:21.634Z,4.90
2023-03-07T02:55:06.140Z,4.90
2023-03-07T02:55:47.921Z,4.80
2023-03-07T02:56:29.710Z,4.90
2023-03-07T02:57:11.590Z,4.60
2023-03-07T02:57:53.902Z,4.90
2023-03-07T02:58:38.054Z,4.60
2023-03-07T02:59:19.888Z,4.70
2023-03-07T03:00:02.294Z,4.90
2023-03-07T03:00:44.376Z,4.70
2023-03-07T03:01:26.429Z,4.90
2023-03-07T03:02:08.516Z,4.80
2023-03-07T03:02:50.449Z,4.60
2023-03-07T03:03:35.252Z,4.80
2023-03-07T03:04:17.113Z,4.80
2023-03-07T03:04:59.060Z,5.30
2023-03-07T03:05:40.961Z,4.70
2023-03-07T03:06:25.425Z,4.90
2023-03-07T03:07:07.528Z,4.70
2023-03-07T03:07:51.676Z,4.90
2023-03-07T03:08:33.455Z,4.90
2023-03-07T03:09:18.095Z,4.70
2023-03-07T03:09:59.870Z,5.20
2023-03-07T03:10:42.131Z,5.20
2023-03-07T03:11:24.106Z,4.80
2023-03-07T03:12:06.198Z,4.60
2023-03-07T03:12:48.024Z,4.60
2023-03-07T03:13:29.770Z,5.00
2023-03-07T03:14:11.539Z,4.90
2023-03-07T03:14:53.339Z,4.90
2023-03-07T03:15:35.414Z,4.80
2023-03-07T03:16:17.340Z,4.60
2023-03-07T03:16:59.652Z,4.80
2023-03-07T03:17:42.184Z,4.40
2023-03-07T03:18:27.230Z,5.60
2023-03-07T03:19:10.075Z,4.80
2023-03-07T03:19:52.211Z,4.80
2023-03-07T03:20:34.197Z,4.40
2023-03-07T03:21:18.415Z,4.60
2023-03-07T03:22:00.559Z,4.70
2023-03-07T03:22:43.113Z,5.30
2023-03-07T03:23:28.248Z,4.80
2023-03-07T03:24:10.200Z,4.50
2023-03-07T03:24:52.237Z,4.80
2023-03-07T03:25:34.197Z,4.60
2023-03-07T03:26:18.340Z,4.80
2023-03-07T03:27:00.151Z,4.70
2023-03-07T03:27:42.199Z,4.70
2023-03-07T03:28:24.306Z,4.60
2023-03-07T03:29:06.164Z,4.80
2023-03-07T03:29:50.306Z,4.80
2023-03-07T03:30:38.574Z,4.80
2023-03-07T03:31:20.670Z,4.80
2023-03-07T03:32:03.861Z,4.70
2023-03-07T03:32:47.157Z,4.50
2023-03-07T03:33:29.313Z,6.40
2023-03-07T03:34:14.190Z,4.50
2023-03-07T03:34:58.498Z,7.10
2023-03-07T03:35:40.553Z,4.60
2023-03-07T03:36:28.130Z,4.70
2023-03-07T03:37:10.195Z,4.50
2023-03-07T03:37:52.307Z,4.40
2023-03-07T03:38:35.364Z,4.50
2023-03-07T03:39:17.384Z,4.60
2023-03-07T03:39:59.286Z,4.30
2023-03-07T03:40:41.355Z,4.50
2023-03-07T03:41:24.425Z,4.50
2023-03-07T03:42:06.363Z,4.60
2023-03-07T03:42:48.305Z,4.60
2023-03-07T03:43:30.233Z,4.50
2023-03-07T03:44:12.278Z,4.50
2023-03-07T03:44:54.288Z,4.70
2023-03-07T03:45:38.614Z,4.60
2023-03-07T03:46:20.658Z,5.10
2023-03-07T03:47:02.521Z,4.50
2023-03-07T03:47:44.694Z,5.00
2023-03-07T03:48:27.429Z,5.60
2023-03-07T03:49:15.156Z,4.60
2023-03-07T03:49:57.345Z,5.70
2023-03-07T03:50:39.222Z,4.20
2023-03-07T03:51:22.373Z,4.60
2023-03-07T03:52:05.113Z,4.50
2023-03-07T03:52:46.982Z,4.50
2023-03-07T03:53:31.912Z,4.70
2023-03-07T03:54:13.713Z,4.60
2023-03-07T03:54:58.222Z,4.50
2023-03-07T03:55:40.287Z,4.50
2023-03-07T03:56:26.077Z,4.50
2023-03-07T03:57:10.226Z,4.60
2023-03-07T03:57:52.374Z,4.50
2023-03-07T03:58:35.631Z,4.70
2023-03-07T03:59:17.802Z,4.50
2023-03-07T04:00:00.215Z,4.50
2023-03-07T04:00:42.412Z,4.60
2023-03-07T04:01:28.416Z,4.40
2023-03-07T04:02:10.370Z,4.60
2023-03-07T04:02:52.508Z,4.50
2023-03-07T04:03:39.833Z,4.20
2023-03-07T04:04:22.587Z,4.60
2023-03-07T04:05:05.240Z,4.40
2023-03-07T04:05:47.454Z,4.60
2023-03-07T04:06:32.767Z,4.80
2023-03-07T04:07:15.437Z,5.90
2023-03-07T04:07:57.473Z,4.80
2023-03-07T04:08:39.891Z,4.70
2023-03-07T04:09:21.676Z,4.50
2023-03-07T04:10:05.101Z,4.60
2023-03-07T04:10:46.873Z,4.50
2023-03-07T04:11:28.719Z,4.60
2023-03-07T04:12:10.496Z,4.40
2023-03-07T04:12:52.488Z,4.90
2023-03-07T04:13:35.945Z,4.60
2023-03-07T04:14:20.347Z,4.50
2023-03-07T04:15:02.488Z,4.50
2023-03-07T04:15:44.409Z,5.70
2023-03-07T04:16:29.004Z,4.60
2023-03-07T04:17:10.870Z,4.40
2023-03-07T04:17:52.936Z,4.30
2023-03-07T04:18:35.974Z,4.50
2023-03-07T04:19:22.022Z,4.60
2023-03-07T04:20:05.263Z,4.20
2023-03-07T04:20:48.507Z,4.60
2023-03-07T04:21:30.448Z,4.70
2023-03-07T04:22:12.509Z,4.50
2023-03-07T04:22:54.597Z,4.40
2023-03-07T04:23:36.731Z,4.60
2023-03-07T04:24:18.501Z,4.40
2023-03-07T04:25:00.279Z,4.60
2023-03-07T04:25:50.487Z,4.30
2023-03-07T04:26:32.613Z,4.60
2023-03-07T04:27:14.454Z,4.30
2023-03-07T04:27:58.652Z,4.50
2023-03-07T04:28:45.566Z,4.50
2023-03-07T04:29:27.522Z,4.40
2023-03-07T04:30:10.281Z,4.50
2023-03-07T04:30:55.779Z,4.70
2023-03-07T04:31:37.935Z,4.60
2023-03-07T04:32:19.966Z,4.60
2023-03-07T04:33:01.682Z,4.50
2023-03-07T04:33:44.450Z,4.80
2023-03-07T04:34:28.405Z,4.60
2023-03-07T04:35:10.416Z,5.40
2023-03-07T04:35:52.258Z,4.50
2023-03-07T04:36:36.260Z,4.60
2023-03-07T04:37:20.457Z,4.50
2023-03-07T04:38:02.445Z,4.60
2023-03-07T04:38:45.500Z,5.20
2023-03-07T04:39:27.526Z,4.60
2023-03-07T04:40:10.463Z,4.70
2023-03-07T04:40:52.561Z,4.60
2023-03-07T04:41:34.680Z,4.60
2023-03-07T04:42:18.794Z,4.60
2023-03-07T04:43:03.589Z,4.50
2023-03-07T04:43:45.563Z,4.60
2023-03-07T04:44:27.662Z,5.00
2023-03-07T04:45:10.501Z,4.30
2023-03-07T04:45:56.370Z,4.60
2023-03-07T04:46:40.286Z,4.70
2023-03-07T04:47:22.077Z,4.40
2023-03-07T04:48:04.786Z,4.60
2023-03-07T04:48:47.557Z,4.60
2023-03-07T04:49:29.590Z,4.70
2023-03-07T04:50:11.599Z,4.60
2023-03-07T04:50:53.519Z,4.60
2023-03-07T04:51:35.602Z,4.70
2023-03-07T04:52:17.403Z,4.50
2023-03-07T04:53:01.286Z,4.60
2023-03-07T04:53:43.813Z,4.50
2023-03-07T04:54:25.572Z,4.60
2023-03-07T04:55:07.690Z,4.40
2023-03-07T04:55:49.593Z,4.70
2023-03-07T04:56:33.669Z,4.50
2023-03-07T04:57:15.541Z,4.50
2023-03-07T04:57:58.064Z,4.50
2023-03-07T04:58:40.109Z,4.60
2023-03-07T04:59:21.920Z,4.50
2023-03-07T05:00:11.390Z,4.50
2023-03-07T05:00:55.674Z,4.50
2023-03-07T05:01:37.794Z,4.50
2023-03-07T05:02:19.619Z,4.60
2023-03-07T05:03:02.226Z,4.50
2023-03-07T05:03:45.054Z,4.70
2023-03-07T05:04:26.965Z,4.30
2023-03-07T05:05:08.922Z,4.30
2023-03-07T05:05:51.021Z,4.30
2023-03-07T05:06:32.781Z,4.50
2023-03-07T05:07:14.603Z,4.40
2023-03-07T05:07:58.496Z,4.40
2023-03-07T05:08:40.582Z,4.60
2023-03-07T05:09:22.371Z,4.40
2023-03-07T05:10:04.693Z,4.30
2023-03-07T05:10:47.008Z,4.30
2023-03-07T05:11:28.786Z,4.50
2023-03-07T05:12:11.023Z,4.60
2023-03-07T05:12:53.136Z,4.60
2023-03-07T05:13:35.515Z,4.60
2023-03-07T05:14:17.635Z,4.60
2023-03-07T05:15:00.900Z,4.50
2023-03-07T05:15:42.880Z,4.40
2023-03-07T05:16:24.748Z,4.90
2023-03-07T05:17:08.585Z,4.50
2023-03-07T05:17:50.569Z,4.40
2023-03-07T05:18:32.739Z,4.30
2023-03-07T05:19:14.743Z,4.50
2023-03-07T05:19:58.810Z,4.40
2023-03-07T05:20:43.154Z,4.60
2023-03-07T05:21:25.490Z,4.30
2023-03-07T05:22:07.799Z,4.30
2023-03-07T05:22:49.830Z,4.50
2023-03-07T05:23:31.710Z,4.40
2023-03-07T05:24:15.536Z,5.50
2023-03-07T05:25:00.808Z,4.50
2023-03-07T05:25:43.622Z,4.60
2023-03-07T05:26:25.683Z,4.40
2023-03-07T05:27:07.805Z,4.70
2023-03-07T05:27:49.735Z,4.50
2023-03-07T05:28:33.662Z,4.40
2023-03-07T05:29:15.717Z,4.60
2023-03-07T05:29:57.866Z,4.40
2023-03-07T05:30:39.769Z,4.50
2023-03-07T05:31:23.705Z,4.50
2023-03-07T05:32:06.010Z,4.50
2023-03-07T05:32:47.957Z,4.50
2023-03-07T05:33:29.750Z,4.50
2023-03-07T05:34:13.631Z,4.50
2023-03-07T05:34:55.565Z,4.50
2023-03-07T05:35:40.186Z,4.40
2023-03-07T05:36:21.995Z,4.40
2023-03-07T05:37:03.975Z,4.40
2023-03-07T05:37:45.782Z,4.60
2023-03-07T05:38:27.977Z,4.60
2023-03-07T05:39:10.405Z,4.30
2023-03-07T05:39:52.193Z,4.70
2023-03-07T05:40:34.266Z,5.00
2023-03-07T05:41:17.355Z,4.60
2023-03-07T05:41:59.320Z,5.10
2023-03-07T05:42:41.274Z,4.50
2023-03-07T05:43:23.361Z,4.60
2023-03-07T05:44:05.590Z,4.50
2023-03-07T05:44:47.887Z,4.30
2023-03-07T05:45:29.822Z,4.80
2023-03-07T05:46:13.671Z,4.60
2023-03-07T05:46:55.479Z,4.70
2023-03-07T05:47:38.912Z,4.70
2023-03-07T05:48:20.677Z,4.20
2023-03-07T05:49:03.010Z,4.40
2023-03-07T05:49:44.780Z,4.50
2023-03-07T05:50:29.300Z,4.60
2023-03-07T05:51:11.177Z,4.50
2023-03-07T05:51:53.324Z,4.30
2023-03-07T05:52:35.439Z,4.60
2023-03-07T05:53:17.387Z,4.50
2023-03-07T05:53:59.387Z,4.50
2023-03-07T05:54:41.204Z,4.50
2023-03-07T05:55:23.051Z,4.90
2023-03-07T05:56:05.460Z,4.60
2023-03-07T05:56:47.261Z,4.50
2023-03-07T05:57:29.293Z,4.20
2023-03-07T05:58:11.163Z,4.60
2023-03-07T05:58:53.074Z,4.50
2023-03-07T05:59:34.842Z,4.70
2023-03-07T06:00:17.146Z,4.50
2023-03-07T06:01:01.375Z,4.60
2023-03-07T06:01:45.922Z,4.60
2023-03-07T06:02:28.127Z,4.50
2023-03-07T06:03:10.270Z,4.60
2023-03-07T06:03:52.104Z,4.70
2023-03-07T06:04:33.962Z,4.40
2023-03-07T06:05:15.923Z,4.60
2023-03-07T06:05:58.175Z,4.60
2023-03-07T06:06:39.904Z,5.40
2023-03-07T06:07:24.283Z,4.70
2023-03-07T06:08:07.137Z,4.40
2023-03-07T06:08:49.034Z,4.50
2023-03-07T06:09:30.832Z,4.40
2023-03-07T06:10:14.784Z,4.70
2023-03-07T06:10:56.594Z,4.80
2023-03-07T06:11:38.974Z,4.50
2023-03-07T06:12:20.737Z,4.40
2023-03-07T06:13:02.612Z,5.30
2023-03-07T06:13:44.608Z,4.60
2023-03-07T06:14:26.410Z,4.60
2023-03-07T06:15:09.005Z,4.70
2023-03-07T06:15:54.138Z,4.60
2023-03-07T06:16:35.912Z,4.30
2023-03-07T06:17:18.099Z,4.60
2023-03-07T06:18:00.119Z,4.60
2023-03-07T06:18:44.585Z,4.60
2023-03-07T06:19:26.451Z,4.80
2023-03-07T06:20:09.219Z,4.70
2023-03-07T06:21:06.207Z,4.70
2023-03-07T06:21:48.152Z,4.70
2023-03-07T06:22:34.169Z,4.90
2023-03-07T06:23:15.956Z,4.60
2023-03-07T06:23:58.145Z,4.70
2023-03-07T06:24:40.073Z,4.40
2023-03-07T06:25:24.228Z,4.40
2023-03-07T06:26:09.234Z,4.70
2023-03-07T06:26:50.991Z,4.70
2023-03-07T06:27:34.522Z,4.70
2023-03-07T06:28:16.369Z,4.70
2023-03-07T06:28:58.195Z,4.60
2023-03-07T06:29:40.064Z,4.40
2023-03-07T06:30:22.219Z,4.70
2023-03-07T06:31:15.743Z,4.70
2023-03-07T06:31:57.574Z,4.70
2023-03-07T06:32:39.623Z,4.80
2023-03-07T06:33:21.552Z,4.70
2023-03-07T06:34:03.440Z,4.80
2023-03-07T06:34:45.145Z,4.80
2023-03-07T06:35:28.976Z,4.60
2023-03-07T06:36:15.348Z,4.70
2023-03-07T06:36:57.202Z,5.80
2023-03-07T06:37:39.197Z,4.80
2023-03-07T06:38:20.999Z,4.70
2023-03-07T06:39:03.335Z,4.80
2023-03-07T06:39:45.145Z,4.70
2023-03-07T06:40:29.376Z,4.80
2023-03-07T06:41:11.208Z,4.80
2023-03-07T06:41:53.304Z,4.70
2023-03-07T06:42:35.585Z,4.70
2023-03-07T06:43:17.386Z,4.60
2023-03-07T06:43:59.685Z,4.80
2023-03-07T06:44:44.233Z,4.60
2023-03-07T06:45:26.088Z,4.60
2023-03-07T06:46:08.277Z,4.80
2023-03-07T06:46:50.168Z,5.20
2023-03-07T06:47:34.314Z,4.80
2023-03-07T06:48:17.763Z,4.60
2023-03-07T06:48:59.744Z,4.60
2023-03-07T06:49:41.505Z,4.60
2023-03-07T06:50:34.506Z,4.80
2023-03-07T06:51:19.235Z,4.70
2023-03-07T06:52:01.141Z,5.00
2023-03-07T06:52:45.619Z,4.90
2023-03-07T06:53:27.364Z,4.80
2023-03-07T06:54:09.295Z,5.00
2023-03-07T06:54:51.167Z,5.00
2023-03-07T06:55:35.053Z,5.00
2023-03-07T06:56:16.910Z,4.70
2023-03-07T06:57:01.557Z,5.10
2023-03-07T06:57:43.387Z,5.00
2023-03-07T06:58:25.242Z,5.00
2023-03-07T06:59:09.373Z,4.90
2023-03-07T06:59:51.154Z,5.40
2023-03-07T07:00:33.190Z,4.80
2023-03-07T07:01:19.311Z,5.00
2023-03-07T07:02:06.396Z,4.80
2023-03-07T07:02:48.489Z,4.80
2023-03-07T07:03:30.379Z,5.10
2023-03-07T07:04:14.225Z,5.10
2023-03-07T07:05:00.164Z,5.10
2023-03-07T07:05:42.952Z,4.80
2023-03-07T07:06:24.838Z,4.90
2023-03-07T07:07:07.476Z,5.40
2023-03-07T07:07:49.343Z,5.10
2023-03-07T07:08:31.170Z,5.10
2023-03-07T07:09:16.778Z,5.10
2023-03-07T07:09:58.840Z,5.20
2023-03-07T07:10:40.789Z,5.10
2023-03-07T07:11:23.801Z,5.10
2023-03-07T07:12:06.300Z,5.30
2023-03-07T07:12:49.544Z,5.10
2023-03-07T07:13:31.406Z,5.10
2023-03-07T07:14:13.455Z,5.30
2023-03-07T07:14:55.281Z,5.00
2023-03-07T07:15:39.394Z,5.20
2023-03-07T07:16:21.327Z,5.10
2023-03-07T07:17:03.366Z,5.10
2023-03-07T07:17:45.410Z,5.00
2023-03-07T07:18:29.265Z,5.10
2023-03-07T07:19:11.134Z,5.20
2023-03-07T07:19:52.938Z,5.50
2023-03-07T07:20:34.922Z,5.30
2023-03-07T07:21:17.021Z,5.10
2023-03-07T07:21:59.355Z,5.40
2023-03-07T07:22:41.263Z,5.20
2023-03-07T07:23:23.614Z,4.90
2023-03-07T07:24:05.581Z,5.30
2023-03-07T07:24:47.422Z,5.00
2023-03-07T07:25:31.323Z,5.10
2023-03-07T07:26:15.492Z,5.10
2023-03-07T07:26:59.623Z,5.10
2023-03-07T07:27:41.562Z,5.10
2023-03-07T07:28:23.616Z,5.40
2023-03-07T07:29:05.530Z,5.20
2023-03-07T07:29:49.693Z,5.90
2023-03-07T07:30:31.556Z,5.20
2023-03-07T07:31:13.703Z,5.50
2023-03-07T07:31:55.778Z,5.20
2023-03-07T07:32:37.815Z,5.30
2023-03-07T07:33:20.537Z,5.40
2023-03-07T07:34:04.988Z,5.20
2023-03-07T07:34:46.947Z,5.20
2023-03-07T07:35:29.194Z,5.50
2023-03-07T07:36:10.981Z,5.40
2023-03-07T07:36:53.484Z,5.20
2023-03-07T07:37:35.431Z,5.40
2023-03-07T07:38:17.385Z,5.40
2023-03-07T07:39:01.600Z,5.20
2023-03-07T07:39:44.080Z,5.50
2023-03-07T07:40:26.074Z,5.20
2023-03-07T07:41:07.918Z,5.20
2023-03-07T07:41:49.745Z,5.50
2023-03-07T07:42:32.408Z,5.30
2023-03-07T07:43:18.648Z,7.40
2023-03-07T07:44:00.844Z,5.50
2023-03-07T07:44:43.486Z,5.40
2023-03-07T07:45:25.497Z,5.60
2023-03-07T07:46:09.530Z,5.30
2023-03-07T07:46:51.358Z,5.40
2023-03-07T07:47:33.498Z,5.60
2023-03-07T07:48:15.505Z,5.60
2023-03-07T07:48:59.803Z,5.40
2023-03-07T07:49:41.555Z,5.40
2023-03-07T07:50:24.512Z,5.60
2023-03-07T07:51:06.641Z,5.40
2023-03-07T07:51:48.671Z,5.50
2023-03-07T07:52:31.380Z,5.00
2023-03-07T07:53:13.681Z,5.30
2023-03-07T07:53:55.596Z,5.40
2023-03-07T07:54:39.838Z,5.20
2023-03-07T07:55:21.943Z,5.60
2023-03-07T07:56:04.121Z,5.20
2023-03-07T07:56:46.702Z,5.20
2023-03-07T07:57:28.720Z,5.30
2023-03-07T07:58:10.617Z,5.30
2023-03-07T07:58:54.633Z,6.50
2023-03-07T07:59:36.478Z,5.40
2023-03-07T08:00:21.412Z,5.50
2023-03-07T08:01:19.945Z,5.40
2023-03-07T08:02:02.230Z,5.50
2023-03-07T08:02:44.246Z,5.40
2023-03-07T08:03:26.221Z,5.40
2023-03-07T08:04:10.858Z,5.60
2023-03-07T08:04:54.924Z,5.30
2023-03-07T08:05:36.798Z,5.30
2023-03-07T08:06:24.258Z,5.50
2023-03-07T08:07:06.266Z,5.30
2023-03-07T08:07:48.666Z,5.60
2023-03-07T08:08:30.653Z,5.40
2023-03-07T08:09:12.723Z,5.40
2023-03-07T08:09:54.646Z,5.40
2023-03-07T08:10:36.524Z,5.50
2023-03-07T08:11:19.761Z,5.50
2023-03-07T08:12:01.685Z,5.40
2023-03-07T08:12:44.632Z,5.50
2023-03-07T08:13:26.613Z,5.30
2023-03-07T08:14:10.832Z,5.50
2023-03-07T08:14:52.642Z,5.40
2023-03-07T08:15:34.711Z,5.50
2023-03-07T08:16:24.643Z,5.60
2023-03-07T08:17:06.559Z,5.40
2023-03-07T08:17:50.599Z,5.70
2023-03-07T08:18:34.457Z,6.50
2023-03-07T08:19:16.301Z,6.20
2023-03-07T08:20:01.827Z,5.50
2023-03-07T08:20:43.800Z,5.60
2023-03-07T08:21:26.983Z,5.50
2023-03-07T08:22:08.821Z,5.60
2023-03-07T08:22:53.881Z,5.50
2023-03-07T08:23:36.196Z,5.40
2023-03-07T08:24:18.007Z,5.10
2023-03-07T08:24:59.908Z,5.70
2023-03-07T08:25:41.691Z,5.50
2023-03-07T08:26:24.347Z,5.70
2023-03-07T08:27:08.517Z,5.70
2023-03-07T08:27:55.063Z,5.20
2023-03-07T08:28:40.916Z,5.80
2023-03-07T08:29:22.901Z,5.50
2023-03-07T08:30:05.062Z,5.70
2023-03-07T08:30:46.844Z,5.60
2023-03-07T08:31:28.787Z,5.40
2023-03-07T08:32:12.123Z,5.50
2023-03-07T08:32:55.218Z,5.70
2023-03-07T08:33:37.791Z,5.80
2023-03-07T08:34:22.014Z,5.60
2023-03-07T08:35:04.104Z,5.70
2023-03-07T08:35:45.976Z,5.50
2023-03-07T08:36:27.843Z,5.50
2023-03-07T08:37:10.435Z,5.70
2023-03-07T08:37:58.245Z,5.60
2023-03-07T08:38:40.133Z,5.60
2023-03-07T08:39:21.927Z,5.80
2023-03-07T08:40:04.344Z,5.50
2023-03-07T08:40:46.330Z,6.00
2023-03-07T08:41:28.908Z,5.70
2023-03-07T08:42:11.021Z,5.70
2023-03-07T08:42:55.112Z,6.00
2023-03-07T08:43:39.263Z,5.70
2023-03-07T08:44:21.385Z,6.10
2023-03-07T08:45:03.341Z,6.00
2023-03-07T08:45:45.147Z,5.70
2023-03-07T08:46:26.930Z,6.10
2023-03-07T08:47:08.877Z,5.70
2023-03-07T08:47:54.592Z,5.50
2023-03-07T08:48:38.785Z,5.70
2023-03-07T08:49:20.543Z,5.90
2023-03-07T08:50:03.771Z,5.80
2023-03-07T08:50:45.580Z,5.90
2023-03-07T08:51:27.428Z,5.80
2023-03-07T08:52:09.507Z,6.00
2023-03-07T08:52:51.909Z,6.10
2023-03-07T08:53:34.000Z,5.90
2023-03-07T08:54:16.026Z,5.90
2023-03-07T08:54:58.027Z,6.30
2023-03-07T08:55:39.920Z,6.00
2023-03-07T08:56:22.041Z,6.00
2023-03-07T08:57:04.033Z,6.10
2023-03-07T08:57:47.560Z,6.10
2023-03-07T08:58:29.585Z,6.00
2023-03-07T08:59:11.552Z,6.20
2023-03-07T08:59:53.596Z,6.10
2023-03-07T09:00:35.760Z,6.10
2023-03-07T09:01:17.719Z,6.30
2023-03-07T09:01:59.650Z,6.20
2023-03-07T09:02:41.504Z,6.10
2023-03-07T09:03:23.494Z,6.10
2023-03-07T09:04:05.372Z,6.20
2023-03-07T09:04:47.693Z,6.10
2023-03-07T09:05:30.109Z,6.10
2023-03-07T09:06:20.433Z,6.20
2023-03-07T09:07:02.388Z,6.50
2023-03-07T09:07:44.428Z,6.30
2023-03-07T09:08:26.619Z,6.30
2023-03-07T09:09:08.623Z,5.90
2023-03-07T09:09:50.378Z,6.30
2023-03-07T09:10:32.460Z,6.00
2023-03-07T09:11:15.578Z,6.40
2023-03-07T09:11:58.228Z,6.10
2023-03-07T09:12:40.090Z,6.50
2023-03-07T09:13:24.048Z,6.10
2023-03-07T09:14:06.169Z,6.20
2023-03-07T09:14:48.032Z,5.90
2023-03-07T09:15:32.019Z,6.20
2023-03-07T09:16:14.196Z,6.10
2023-03-07T09:16:56.126Z,6.40
2023-03-07T09:17:38.215Z,6.30
2023-03-07T09:18:22.718Z,6.50
2023-03-07T09:19:04.706Z,6.30
2023-03-07T09:19:46.680Z,7.20
2023-03-07T09:20:28.763Z,6.40
2023-03-07T09:21:11.093Z,6.30
2023-03-07T09:21:53.066Z,6.30
2023-03-07T09:22:37.154Z,6.20
2023-03-07T09:23:18.988Z,6.30
2023-03-07T09:24:00.968Z,6.50
2023-03-07T09:24:43.092Z,6.70
2023-03-07T09:25:27.042Z,6.50
2023-03-07T09:26:10.167Z,6.40
2023-03-07T09:26:53.055Z,6.60
2023-03-07T09:27:35.024Z,6.60
2023-03-07T09:28:19.328Z,6.30
2023-03-07T09:29:01.147Z,6.70
2023-03-07T09:29:45.081Z,6.40
2023-03-07T09:30:28.422Z,6.70
2023-03-07T09:31:12.339Z,6.40
2023-03-07T09:31:54.302Z,6.60
2023-03-07T09:32:36.324Z,6.40
2023-03-07T09:33:18.270Z,6.60
2023-03-07T09:34:02.134Z,6.20
2023-03-07T09:34:44.043Z,6.30
2023-03-07T09:35:26.201Z,6.60
2023-03-07T09:36:10.617Z,6.70
2023-03-07T09:36:52.502Z,6.50
2023-03-07T09:37:34.453Z,6.50
2023-03-07T09:38:17.636Z,6.60
2023-03-07T09:38:59.721Z,6.60
2023-03-07T09:39:41.764Z,6.60
2023-03-07T09:40:25.861Z,7.80
2023-03-07T09:41:13.383Z,6.50
2023-03-07T09:42:11.675Z,6.50
2023-03-07T09:43:22.340Z,6.40
2023-03-07T09:44:12.541Z,6.90
2023-03-07T09:44:57.356Z,6.70
2023-03-07T09:45:44.570Z,6.90
2023-03-07T09:46:37.704Z,6.60
2023-03-07T09:47:33.675Z,6.80
2023-03-07T09:48:42.788Z,6.80
2023-03-07T09:49:34.281Z,6.40
2023-03-07T09:50:44.741Z,6.80
2023-03-07T09:51:38.507Z,6.60
2023-03-07T09:52:30.029Z,6.70